Raugust, Washington
Current Conditions -  °F | °C
As of 8:52 PM on Monday 22 Dec 2014 (Local Time) from KMWH Reporting Station
Clear Clear  
Wind Chill: 37°   Ceiling: Unl
Heat Index: 37°   Visibility: 10mi
Dew Point: 31°   Wind: 0mph
Humidity: 79%   Direction: NA
Pressure: 30.35"   Gusts: NA
Location:  47.1758°N, 119.289°W
Report Text: KMWH 230452Z 00000KT 10SM CLR 03/M01 A3035 RMK AO2 SLP285 T00281006
Loading
Personal Weather Stations






























Interactive Weather Map New forecast layout! Learn more

10-Day Weather Forecast

Advertisements
Track Severe Weather on mobile